Time;durP1;ratioP1;P1;durP2;ratioP2;P2;SDS_P1;SDS_P2;PMS_P1;PMS_P2;Temp;Humidity;BMP_temperature;BMP_pressure;BME280_temperature;BME280_humidity;BME280_pressure;Samples;Min_cycle;Max_cycle;Signal;HPM_P1;HPM_P2
2021/12/19 00:09:12;;;;;;;6.50;2.40;;;;;;;6.38;91.97;102448.52;103054;1330;71388;-80
2021/12/19 00:11:38;;;;;;;4.00;2.10;;;;;;;6.35;92.14;102449.94;103026;1329;77058;-79
2021/12/19 00:14:05;;;;;;;6.60;2.60;;;;;;;6.34;92.55;102443.00;103228;1329;62056;-82
2021/12/19 00:16:32;;;;;;;4.30;2.50;;;;;;;6.27;92.65;102441.03;103115;1329;62939;-79
2021/12/19 00:18:59;;;;;;;5.50;2.70;;;;;;;6.29;92.91;102439.64;103041;1343;74339;-81
2021/12/19 00:21:26;;;;;;;5.60;2.30;;;;;;;6.27;93.25;102433.51;103101;1340;72630;-80
2021/12/19 00:23:54;;;;;;;4.80;2.50;;;;;;;6.25;93.63;102435.34;103111;1340;73164;-79
2021/12/19 00:26:21;;;;;;;4.20;2.60;;;;;;;6.23;94.14;102431.46;102544;1351;62233;-79
2021/12/19 00:28:49;;;;;;;6.20;3.10;;;;;;;6.22;94.82;102434.16;103091;1348;60748;-80
2021/12/19 00:31:16;;;;;;;4.80;2.50;;;;;;;6.20;95.05;102431.67;103021;1342;73967;-80
2021/12/19 00:33:43;;;;;;;5.70;2.70;;;;;;;6.19;95.45;102433.12;102721;1342;71443;-82
2021/12/19 00:36:11;;;;;;;6.30;3.40;;;;;;;6.18;95.90;102436.03;102956;1343;73050;-80
2021/12/19 00:38:38;;;;;;;7.50;2.80;;;;;;;6.17;96.11;102438.39;102815;1346;62301;-81
2021/12/19 00:41:06;;;;;;;5.90;3.20;;;;;;;6.17;96.20;102434.52;103055;1342;61620;-81
2021/12/19 00:43:43;;;;;;;4.70;2.80;;;;;;;6.16;96.06;102433.19;103061;1343;74182;-80
2021/12/19 00:46:12;;;;;;;7.20;3.50;;;;;;;6.16;96.33;102431.42;103059;1343;72594;-79
2021/12/19 00:48:42;;;;;;;6.90;3.50;;;;;;;6.16;96.78;102427.71;102903;1346;74022;-79
2021/12/19 00:51:12;;;;;;;6.20;3.50;;;;;;;6.15;97.00;102418.65;103083;1342;63395;-80
2021/12/19 00:53:38;;;;;;;6.50;2.70;;;;;;;6.13;96.84;102408.93;103105;1339;60920;-81
2021/12/19 00:56:06;;;;;;;6.30;4.00;;;;;;;6.14;96.70;102410.46;102689;1345;74993;-79
2021/12/19 00:58:33;;;;;;;5.90;3.90;;;;;;;6.12;96.29;102409.34;103081;1348;72207;-80
2021/12/19 01:01:00;;;;;;;9.70;3.80;;;;;;;6.12;95.73;102408.45;103047;1342;74071;-80
2021/12/19 01:03:27;;;;;;;8.20;3.90;;;;;;;6.11;95.08;102409.06;102620;1343;62651;-81
2021/12/19 01:05:54;;;;;;;7.50;3.40;;;;;;;6.11;94.39;102398.34;103115;1343;59484;-79
2021/12/19 01:08:21;;;;;;;6.00;2.70;;;;;;;6.11;94.53;102395.20;103043;1349;75366;-80
2021/12/19 01:10:48;;;;;;;5.10;2.90;;;;;;;6.10;94.31;102401.27;103072;1342;72524;-80
2021/12/19 01:13:16;;;;;;;6.30;3.20;;;;;;;6.09;94.46;102391.79;103090;1342;73710;-79
2021/12/19 01:15:45;;;;;;;5.60;2.00;;;;;;;6.08;94.33;102396.98;103063;1346;62582;-79
2021/12/19 01:18:12;;;;;;;5.40;3.70;;;;;;;6.08;94.59;102390.67;102764;1342;61600;-79
2021/12/19 01:20:41;;;;;;;5.60;3.30;;;;;;;6.07;94.77;102387.70;103112;1347;73928;-79
2021/12/19 01:23:09;;;;;;;6.20;3.60;;;;;;;6.08;95.29;102389.98;103012;1346;72430;-79
2021/12/19 01:25:36;;;;;;;6.10;3.00;;;;;;;6.06;95.31;102382.86;103024;1349;72139;-80
2021/12/19 01:28:04;;;;;;;6.10;3.10;;;;;;;6.05;94.78;102374.88;103123;1340;62323;-81
2021/12/19 01:30:32;;;;;;;6.00;3.70;;;;;;;6.07;94.98;102374.95;102836;1348;60264;-81
2021/12/19 01:32:58;;;;;;;4.20;3.10;;;;;;;6.07;95.13;102367.74;103038;1342;74113;-81
2021/12/19 01:35:25;;;;;;;5.70;3.60;;;;;;;6.06;95.03;102369.20;103114;1343;71221;-79
2021/12/19 01:37:52;;;;;;;6.60;3.00;;;;;;;6.07;95.45;102361.95;103164;1342;74048;-79
2021/12/19 01:40:20;;;;;;;8.20;4.00;;;;;;;6.07;95.60;102360.55;102640;1348;63378;-80
2021/12/19 01:42:49;;;;;;;9.00;3.10;;;;;;;6.04;95.43;102357.17;103088;1346;62139;-81
2021/12/19 01:45:24;;;;;;;6.10;3.30;;;;;;;6.05;95.61;102353.23;103175;1339;74138;-80
2021/12/19 01:47:50;;;;;;;6.60;3.00;;;;;;;6.04;95.65;102345.58;103048;1342;71481;-80
2021/12/19 01:50:17;;;;;;;3.70;2.20;;;;;;;6.05;95.75;102341.48;103056;1346;73411;-81
2021/12/19 01:52:45;;;;;;;5.20;3.00;;;;;;;6.06;95.86;102340.55;102989;1342;62103;-80
2021/12/19 01:55:12;;;;;;;6.60;3.30;;;;;;;6.07;95.91;102345.38;102728;1348;60862;-81
2021/12/19 01:57:39;;;;;;;4.80;2.70;;;;;;;6.06;95.95;102337.89;103063;1342;75242;-79
2021/12/19 02:00:18;;;;;;;5.80;3.40;;;;;;;6.07;96.16;102340.46;103069;1342;71569;-79
2021/12/19 02:02:45;;;;;;;5.40;3.00;;;;;;;6.06;96.26;102335.59;102962;1345;74082;-80
2021/12/19 02:05:12;;;;;;;7.20;3.30;;;;;;;6.07;96.09;102332.56;102647;1346;63808;-80
2021/12/19 02:07:42;;;;;;;6.40;3.20;;;;;;;6.07;96.31;102331.15;103090;1346;57772;-80
2021/12/19 02:10:09;;;;;;;6.10;3.20;;;;;;;6.09;96.22;102327.20;103040;1345;75235;-80
2021/12/19 02:12:41;;;;;;;6.00;2.70;;;;;;;6.09;96.70;102321.71;103083;1344;72877;-79
2021/12/19 02:15:08;;;;;;;5.30;3.20;;;;;;;6.09;96.85;102318.23;103049;1349;74008;-81
2021/12/19 02:17:34;;;;;;;8.60;4.50;;;;;;;6.08;96.76;102307.59;103020;1343;62175;-80
2021/12/19 02:20:03;;;;;;;4.90;2.60;;;;;;;6.09;96.86;102307.67;103166;1340;60722;-80
2021/12/19 02:22:29;;;;;;;6.50;3.50;;;;;;;6.09;97.07;102302.56;103097;1342;74133;-80
2021/12/19 02:24:56;;;;;;;8.80;4.10;;;;;;;6.10;97.07;102302.70;102777;1347;58726;-80
2021/12/19 02:27:28;;;;;;;4.90;3.00;;;;;;;6.10;97.29;102299.55;103051;1342;58345;-80
2021/12/19 02:29:58;;;;;;;9.20;3.80;;;;;;;6.08;97.38;102298.61;103065;1348;63753;-80
2021/12/19 02:32:27;;;;;;;7.00;4.40;;;;;;;6.08;97.32;102292.44;103121;1343;60692;-80
2021/12/19 02:34:57;;;;;;;8.60;3.60;;;;;;;6.09;97.66;102283.98;103022;1345;73580;-80
2021/12/19 02:48:20;;;;;;;7.70;3.60;;;;;;;6.11;97.85;102275.42;102838;1347;74270;-81
2021/12/19 02:50:50;;;;;;;6.70;3.30;;;;;;;6.11;97.73;102270.27;103053;1345;72456;-79
2021/12/19 02:53:30;;;;;;;6.40;3.60;;;;;;;6.12;97.77;102271.11;102853;1346;73122;-80
2021/12/19 02:55:57;;;;;;;5.20;2.70;;;;;;;6.12;97.57;102271.28;102905;1348;62335;-80
2021/12/19 02:58:24;;;;;;;7.10;3.80;;;;;;;6.13;97.37;102261.21;102702;1347;60682;-80
2021/12/19 03:00:51;;;;;;;5.80;3.50;;;;;;;6.14;97.39;102252.71;102557;1349;74167;-82
2021/12/19 03:03:17;;;;;;;7.60;3.20;;;;;;;6.15;97.39;102246.91;103031;1348;73167;-81
2021/12/19 03:05:44;;;;;;;9.60;3.40;;;;;;;6.16;97.53;102244.17;103041;1343;71920;-81
2021/12/19 03:08:12;;;;;;;6.10;3.50;;;;;;;6.16;97.82;102245.38;103091;1347;62495;-80
2021/12/19 03:11:22;;;;;;;7.90;3.60;;;;;;;6.17;97.82;102246.75;103097;1342;61451;-82
2021/12/19 03:17:57;;;;;;;5.30;2.80;;;;;;;6.17;97.80;102252.20;102815;1347;75235;-81
2021/12/19 03:19:11;;;;;;;6.30;3.30;;;;;;;6.18;97.66;102238.44;103064;1343;73116;-81
2021/12/19 03:21:37;;;;;;;7.00;3.10;;;;;;;6.16;97.12;102250.28;102621;1349;62019;-80
2021/12/19 03:24:04;;;;;;;5.60;2.90;;;;;;;6.18;96.75;102236.96;103074;1342;60460;-83
2021/12/19 03:26:31;;;;;;;4.70;2.90;;;;;;;6.20;96.64;102230.85;102883;1340;75177;-84
2021/12/19 03:28:57;;;;;;;5.80;2.90;;;;;;;6.22;96.35;102230.19;103119;1343;71245;-81
2021/12/19 03:31:24;;;;;;;6.60;3.50;;;;;;;6.23;96.30;102228.02;103174;1346;73132;-83
2021/12/19 03:33:50;;;;;;;7.70;2.50;;;;;;;6.24;96.07;102219.70;102408;1347;639695;-79
2021/12/19 03:36:17;;;;;;;5.30;2.70;;;;;;;6.25;95.85;102224.55;103171;1339;61794;-80
2021/12/19 03:38:45;;;;;;;8.80;2.70;;;;;;;6.27;96.09;102216.34;103118;1345;74166;-80
2021/12/19 03:41:19;;;;;;;5.50;3.10;;;;;;;6.27;96.05;102217.42;102737;1346;71571;-80
2021/12/19 03:43:46;;;;;;;6.40;2.50;;;;;;;6.28;96.00;102211.88;103076;1345;73111;-79
2021/12/19 03:46:13;;;;;;;8.70;3.00;;;;;;;6.28;96.05;102223.77;102564;1349;62280;-80
2021/12/19 03:48:40;;;;;;;3.80;1.80;;;;;;;6.29;96.33;102222.84;103091;1346;61530;-79
2021/12/19 03:51:07;;;;;;;6.10;3.60;;;;;;;6.28;96.52;102218.48;103110;1345;74165;-80
2021/12/19 03:53:34;;;;;;;4.70;3.00;;;;;;;6.29;96.27;102213.85;103032;1345;71697;-79
2021/12/19 03:56:00;;;;;;;8.00;3.30;;;;;;;6.30;96.55;102217.02;103166;1347;73437;-80
2021/12/19 03:58:27;;;;;;;7.80;3.80;;;;;;;6.30;96.52;102215.91;103086;1346;62129;-80
2021/12/19 04:00:59;;;;;;;7.20;2.60;;;;;;;6.30;96.31;102215.02;103037;1349;60349;-80
2021/12/19 04:03:28;;;;;;;7.50;3.00;;;;;;;6.32;96.22;102211.77;103031;1348;73860;-81
2021/12/19 04:05:55;;;;;;;7.50;2.80;;;;;;;6.32;96.12;102206.98;103096;1345;70164;-80
2021/12/19 04:08:22;;;;;;;6.80;3.80;;;;;;;6.31;96.00;102209.84;103018;1349;74312;-82
2021/12/19 04:10:51;;;;;;;7.90;2.70;;;;;;;6.34;96.04;102201.59;102823;1349;62347;-83
2021/12/19 04:13:19;;;;;;;6.50;2.60;;;;;;;6.35;95.99;102196.05;103047;1348;61640;-82
2021/12/19 04:15:48;;;;;;;5.20;2.60;;;;;;;6.34;96.11;102196.64;103158;1340;75116;-80
2021/12/19 04:18:14;;;;;;;7.90;3.30;;;;;;;6.33;96.50;102200.96;103051;1348;70402;-82
2021/12/19 04:20:41;;;;;;;8.80;3.70;;;;;;;6.34;96.58;102198.06;102926;1345;74138;-82
2021/12/19 04:23:08;;;;;;;7.50;4.30;;;;;;;6.32;96.95;102203.50;103042;1343;62763;-79
2021/12/19 04:25:35;;;;;;;6.50;3.50;;;;;;;6.31;97.23;102192.11;103095;1342;61449;-80
2021/12/19 04:28:02;;;;;;;5.30;2.90;;;;;;;6.31;96.86;102195.30;103095;1346;75458;-80
2021/12/19 04:30:28;;;;;;;9.20;3.50;;;;;;;6.32;96.60;102183.99;103083;1342;72001;-79
2021/12/19 04:33:08;;;;;;;5.70;2.70;;;;;;;6.32;96.31;102185.23;102963;1340;58222;-79
2021/12/19 04:35:39;;;;;;;7.90;3.30;;;;;;;6.32;96.16;102182.02;103053;1345;62121;-80
2021/12/19 04:44:21;;;;;;;6.40;3.10;;;;;;;6.33;96.77;102183.56;102803;1349;71669;-80
2021/12/19 05:02:14;;;;;;;;;;;;;;;6.33;97.03;102183.23;103786;1329;60956;-79
2021/12/19 05:15:32;;;;;;;;;;;;;;;6.36;95.69;102152.76;103409;1338;63274;-82
2021/12/19 05:18:03;;;;;;;;;;;;;;;6.37;95.78;102153.59;103087;1337;60441;-80
2021/12/19 05:20:31;;;;;;;;;;;;;;;6.37;95.43;102154.48;103459;1336;75136;-80
2021/12/19 05:23:18;;;;;;;;;;;;;;;6.37;95.70;102158.84;103489;1337;72189;-79
2021/12/19 05:25:44;;;;;;;;;;;;;;;6.38;95.75;102163.86;103108;1336;72747;-79
2021/12/19 05:28:11;;;;;;;;;;;;;;;6.38;95.25;102157.40;102989;1344;58321;-79
2021/12/19 05:30:37;;;;;;;;;;;;;;;6.37;95.03;102155.17;103474;1336;58330;-79
2021/12/19 05:33:06;;;;;;;;;;;;;;;6.37;95.28;102145.13;103412;1338;58355;-79
2021/12/19 05:44:13;;;;;;;;;;;;;;;6.34;95.60;102129.85;103424;1336;63393;-79
2021/12/19 05:46:38;;;;;;;;;;;;;;;6.32;95.35;102127.95;103366;1339;75022;-79
2021/12/19 05:49:06;;;;;;;;;;;;;;;6.30;95.60;102114.54;102906;1340;72471;-79
2021/12/19 05:51:33;;;;;;;;;;;;;;;6.29;95.86;102121.32;103333;1339;73681;-78
2021/12/19 05:54:00;;;;;;;;;;;;;;;6.28;95.78;102136.52;102993;1344;62461;-79
2021/12/19 05:56:27;;;;;;;;;;;;;;;6.27;95.85;102134.64;103450;1340;59118;-79
2021/12/19 05:58:54;;;;;;;;;;;;;;;6.27;95.69;102130.95;103335;1339;58311;-79
2021/12/19 06:01:21;;;;;;;;;;;;;;;6.27;95.69;102124.98;103302;1342;72453;-80
2021/12/19 06:03:47;;;;;;;;;;;;;;;6.27;95.41;102129.84;103440;1336;58351;-81
2021/12/19 06:06:14;;;;;;;;;;;;;;;6.28;95.40;102122.04;103439;1339;62476;-81
2021/12/19 06:08:41;;;;;;;;;;;;;;;6.28;95.64;102126.29;103370;1341;61505;-80
2021/12/19 06:11:07;;;;;;;;;;;;;;;6.28;95.44;102131.19;103400;1343;73213;-81
2021/12/19 06:13:38;;;;;;;;;;;;;;;6.29;95.79;102121.47;103386;1339;71569;-80
2021/12/19 06:16:05;;;;;;;;;;;;;;;6.29;95.60;102118.45;103341;1338;58385;-80
2021/12/19 06:18:31;;;;;;;;;;;;;;;6.29;95.63;102118.69;103383;1343;64111;-82
2021/12/19 06:20:58;;;;;;;;;;;;;;;6.30;95.45;102118.96;103449;1343;60604;-79
2021/12/19 06:23:24;;;;;;;;;;;;;;;6.32;95.29;102119.88;103462;1336;58280;-80
2021/12/19 06:25:53;;;;;;;;;;;;;;;6.33;95.37;102122.08;103389;1340;58438;-80
2021/12/19 06:28:19;;;;;;;;;;;;;;;6.33;95.48;102110.80;103524;1340;72989;-82
2021/12/19 06:30:46;;;;;;;;;;;;;;;6.32;95.52;102111.58;103446;1335;62241;-80
2021/12/19 06:33:14;;;;;;;;;;;;;;;6.33;95.32;102107.45;103501;1323;60565;-80
2021/12/19 06:35:40;;;;;;;;;;;;;;;6.34;95.65;102115.11;103543;1335;74555;-82
2021/12/19 06:38:07;;;;;;;;;;;;;;;6.34;95.29;102111.96;103482;1336;71707;-84
2021/12/19 06:40:34;;;;;;;;;;;;;;;6.35;95.41;102110.52;103091;1343;73434;-81
2021/12/19 06:43:01;;;;;;;;;;;;;;;6.34;95.23;102104.79;103377;1336;62301;-80
2021/12/19 06:45:27;;;;;;;;;;;;;;;6.34;94.96;102110.23;103420;1340;62094;-80
2021/12/19 06:47:54;;;;;;;;;;;;;;;6.33;94.81;102104.11;103094;1336;75001;-79
2021/12/19 06:50:22;;;;;;;;;;;;;;;6.34;94.79;102105.32;103427;1335;72121;-82
2021/12/19 06:52:49;;;;;;;;;;;;;;;6.32;94.55;102083.80;103574;1340;73161;-81
2021/12/19 06:55:16;;;;;;;;;;;;;;;6.32;94.36;102089.98;103298;1336;62433;-82
2021/12/19 06:57:43;;;;;;;;;;;;;;;6.31;94.00;102078.25;103578;1336;61411;-82
2021/12/19 07:00:11;;;;;;;;;;;;;;;6.32;93.86;102071.73;103371;1339;74483;-80
2021/12/19 07:02:38;;;;;;;;;;;;;;;6.30;93.93;102070.77;103543;1339;71490;-80
2021/12/19 07:05:05;;;;;;;;;;;;;;;6.29;94.06;102069.96;103446;1336;72746;-81
2021/12/19 07:07:31;;;;;;;;;;;;;;;6.29;94.06;102072.10;103379;1337;62222;-80
2021/12/19 07:09:58;;;;;;;;;;;;;;;6.29;93.81;102070.14;103356;1340;60215;-79
2021/12/19 07:12:27;;;;;;;;;;;;;;;6.29;93.94;102076.48;103351;1340;75441;-79
2021/12/19 07:14:54;;;;;;;;;;;;;;;6.30;93.44;102080.98;103475;1335;72637;-80
2021/12/19 07:17:21;;;;;;;;;;;;;;;6.31;93.89;102073.52;103393;1336;72972;-80
2021/12/19 07:19:47;;;;;;;;;;;;;;;6.31;93.75;102082.12;103436;1333;61962;-80
2021/12/19 07:22:14;;;;;;;;;;;;;;;6.32;93.72;102074.70;103466;1343;58385;-81
2021/12/19 07:24:41;;;;;;;;;;;;;;;6.33;93.62;102068.85;103342;1337;73700;-82
2021/12/19 07:27:07;;;;;;;;;;;;;;;6.32;93.82;102065.16;103421;1340;58398;-80
2021/12/19 07:29:34;;;;;;;;;;;;;;;6.32;93.58;102067.87;103284;1339;58374;-80
2021/12/19 07:32:00;;;;;;;;;;;;;;;6.32;93.70;102056.96;103473;1336;63556;-82
2021/12/19 07:34:31;;;;;;;;;;;;;;;6.32;93.47;102054.88;103345;1338;58330;-80
2021/12/19 07:36:59;;;;;;;;;;;;;;;6.30;93.80;102051.12;103376;1342;75286;-80
2021/12/19 07:42:01;;;;;;;;;;;;;;;6.30;94.22;102047.63;103465;1325;71285;-79
2021/12/19 07:44:28;;;;;;;;;;;;;;;6.29;94.14;102035.73;103456;1335;62033;-83
2021/12/19 07:46:54;;;;;;;;;;;;;;;6.28;94.33;102034.55;103581;1337;58351;-81
2021/12/19 07:49:21;;;;;;;;;;;;;;;6.29;94.47;102043.31;103382;1344;58373;-81
2021/12/19 07:51:47;;;;;;;;;;;;;;;6.27;94.45;102043.27;103439;1336;57999;-78
2021/12/19 07:54:14;;;;;;;;;;;;;;;6.27;94.48;102040.32;103352;1336;58303;-80
2021/12/19 07:56:41;;;;;;;;;;;;;;;6.28;94.60;102036.73;103035;1336;62372;-81
2021/12/19 07:59:07;;;;;;;;;;;;;;;6.28;94.62;102045.14;103442;1336;58359;-82
2021/12/19 08:01:34;;;;;;;;;;;;;;;6.28;94.49;102039.51;103411;1339;59082;-77
2021/12/19 08:04:00;;;;;;;;;;;;;;;6.28;94.69;102033.54;103398;1336;58269;-80
2021/12/19 08:06:28;;;;;;;;;;;;;;;6.26;94.80;102040.55;102976;1344;72411;-83
2021/12/19 08:08:57;;;;;;;;;;;;;;;6.26;95.02;102027.91;103441;1336;62086;-80
2021/12/19 08:11:40;;;;;;;;;;;;;;;6.25;94.95;102029.71;103439;1339;60581;-81
2021/12/19 08:14:07;;;;;;;;;;;;;;;6.25;95.48;102035.36;103316;1326;75867;-81
2021/12/19 08:16:34;;;;;;;;;;;;;;;6.24;95.53;102031.17;103349;1336;70864;-79
2021/12/19 08:19:00;;;;;;;;;;;;;;;6.24;95.45;102030.70;103362;1335;58335;-80
2021/12/19 08:21:26;;;;;;;;;;;;;;;6.24;95.56;102028.91;103379;1339;58365;-79
2021/12/19 08:23:57;;;;;;;;;;;;;;;6.23;95.71;102028.67;103404;1336;58188;-80
2021/12/19 08:26:25;;;;;;;;;;;;;;;6.24;96.00;102027.52;103366;1336;75205;-80
2021/12/19 08:28:51;;;;;;;;;;;;;;;6.21;95.80;102024.22;103374;1336;72497;-79
2021/12/19 08:31:18;;;;;;;;;;;;;;;6.18;95.85;102029.33;102995;1343;58881;-80
2021/12/19 08:33:46;;;;;;;;;;;;;;;6.18;95.86;102027.92;103380;1338;61978;-80
2021/12/19 08:36:15;;;;;;;;;;;;;;;6.18;96.02;102023.02;103108;1336;61452;-84
2021/12/19 08:38:41;;;;;;;;;;;;;;;6.19;95.91;102014.58;102855;1343;74219;-80
2021/12/19 08:41:08;;;;;;;;;;;;;;;6.17;96.06;102016.59;103341;1340;71301;-81
2021/12/19 08:43:35;;;;;;;;;;;;;;;6.17;96.18;102010.23;103255;1339;74024;-82
2021/12/19 08:46:01;;;;;;;;;;;;;;;6.17;96.83;102020.46;103292;1339;58300;-82
2021/12/19 08:48:28;;;;;;;;;;;;;;;6.18;96.82;102011.30;103395;1336;58246;-83
2021/12/19 08:50:54;;;;;;;;;;;;;;;6.16;96.82;102010.91;103271;1339;58362;-82
2021/12/19 08:53:21;;;;;;;;;;;;;;;6.16;97.03;102013.23;103198;1345;71432;-82
2021/12/19 08:55:47;;;;;;;;;;;;;;;6.15;97.26;102019.19;103326;1342;73052;-81
2021/12/19 08:58:14;;;;;;;;;;;;;;;6.14;97.70;102024.36;103363;1339;58421;-82
2021/12/19 09:00:40;;;;;;;;;;;;;;;6.15;97.75;102016.96;103377;1340;61194;-81
2021/12/19 09:03:08;;;;;;;;;;;;;;;6.14;97.75;102025.83;103210;1339;58295;-80
2021/12/19 09:05:35;;;;;;;;;;;;;;;6.12;98.41;102018.91;103256;1338;72578;-82
2021/12/19 09:08:02;;;;;;;;;;;;;;;6.10;98.71;102017.06;103366;1342;72119;-84
2021/12/19 09:10:29;;;;;;;;;;;;;;;6.11;98.77;102014.08;103365;1342;62031;-81
2021/12/19 09:12:55;;;;;;;;;;;;;;;6.10;98.72;102011.86;103247;1336;59109;-82
2021/12/19 09:15:22;;;;;;;;;;;;;;;6.09;98.88;102020.84;102903;1339;58367;-81
2021/12/19 09:17:48;;;;;;;;;;;;;;;6.08;99.27;102020.75;103302;1342;58937;-80
2021/12/19 09:20:16;;;;;;;;;;;;;;;6.06;99.77;102018.47;103365;1343;73106;-81
2021/12/19 09:22:42;;;;;;;;;;;;;;;6.04;99.76;102010.52;102836;1339;62770;-82
2021/12/19 09:25:16;;;;;;;;;;;;;;;6.02;99.81;102013.33;103343;1336;60187;-82
2021/12/19 09:27:43;;;;;;;;;;;;;;;6.00;99.92;102011.14;103352;1340;75200;-81
2021/12/19 09:30:09;;;;;;;;;;;;;;;5.99;100.00;102010.52;103380;1337;58446;-82
2021/12/19 09:32:36;;;;;;;;;;;;;;;5.99;100.00;102009.45;103285;1342;73712;-80
2021/12/19 09:35:02;;;;;;;;;;;;;;;6.00;100.00;102009.27;103017;1338;58362;-82
2021/12/19 09:37:30;;;;;;;;;;;;;;;6.00;99.95;102006.73;103383;1342;61707;-81
2021/12/19 09:39:56;;;;;;;;;;;;;;;6.03;99.99;102012.21;103165;1341;75831;-81
2021/12/19 09:42:32;;;;;;;;;;;;;;;6.05;100.00;102008.84;103353;1342;58335;-80
2021/12/19 09:44:59;;;;;;;;;;;;;;;6.07;100.00;102006.24;103373;1339;73094;-82
2021/12/19 09:47:25;;;;;;;;;;;;;;;6.07;100.00;102008.05;103193;1339;61811;-80
2021/12/19 09:49:53;;;;;;;;;;;;;;;6.07;100.00;101995.69;103402;1339;60250;-79
2021/12/19 09:52:20;;;;;;;;;;;;;;;6.06;100.00;102002.96;103278;1341;75145;-80
2021/12/19 09:54:46;;;;;;;;;;;;;;;6.05;100.00;101997.12;103013;1342;72549;-80
2021/12/19 09:57:13;;;;;;;;;;;;;;;6.02;100.00;101996.09;103271;1338;58403;-79
2021/12/19 09:59:43;;;;;;;;;;;;;;;6.01;100.00;101983.34;103305;1339;58539;-80
2021/12/19 10:02:09;;;;;;;;;;;;;;;6.01;100.00;101983.19;103243;1343;60461;-79
2021/12/19 10:04:38;;;;;;;;;;;;;;;6.00;100.00;101977.78;103284;1339;75388;-79
2021/12/19 10:07:07;;;;;;;;;;;;;;;6.00;100.00;101977.98;103258;1339;72257;-79
2021/12/19 10:09:36;;;;;;;;;;;;;;;6.01;100.00;101974.60;102830;1342;73143;-78
2021/12/19 10:12:24;;;;;;;;;;;;;;;6.01;100.00;101976.69;102772;1342;63338;-80
2021/12/19 10:14:52;;;;;;;;;;;;;;;6.01;100.00;101978.96;103305;1339;61404;-82
2021/12/19 10:17:19;;;;;;;;;;;;;;;6.01;100.00;101972.27;103305;1338;74203;-81
2021/12/19 10:19:55;;;;;;;;;;;;;;;6.02;100.00;101974.48;103392;1339;71635;-81
2021/12/19 10:22:24;;;;;;;;;;;;;;;6.01;100.00;101972.79;103385;1339;74365;-80
2021/12/19 10:24:51;;;;;;;;;;;;;;;6.02;100.00;101963.95;103386;1343;62366;-79
2021/12/19 10:27:34;;;;;;;;;;;;;;;6.02;100.00;101962.92;103423;1338;59124;-79
2021/12/19 10:30:00;;;;;;;;;;;;;;;6.03;100.00;101961.08;102935;1339;75187;-83
2021/12/19 10:32:27;;;;;;;;;;;;;;;6.02;100.00;101956.06;103206;1339;73132;-80
2021/12/19 10:35:13;;;;;;;;;;;;;;;6.00;100.00;101950.95;103352;1344;74046;-82
2021/12/19 10:37:41;;;;;;;;;;;;;;;5.97;100.00;101952.26;103289;1340;63988;-79
2021/12/19 10:40:07;;;;;;;;;;;;;;;5.95;100.00;101945.73;102811;1342;61288;-80
2021/12/19 10:42:54;;;;;;;;;;;;;;;5.91;100.00;101940.68;103317;1339;74193;-81
2021/12/19 10:45:30;;;;;;;;;;;;;;;5.91;100.00;101936.11;103391;1339;71694;-82
2021/12/19 10:48:09;;;;;;;;;;;;;;;5.91;100.00;101927.16;103386;1339;74274;-83
2021/12/19 10:50:45;;;;;;;;;;;;;;;5.92;100.00;101933.80;103775;1326;60836;-82
2021/12/19 10:53:15;;;;;;;;;;;;;;;5.91;100.00;101925.77;103465;1340;63939;-80
2021/12/19 10:55:43;;;;;;;;;;;;;;;5.90;100.00;101925.64;103420;1338;74220;-83
2021/12/19 10:58:19;;;;;;;;;;;;;;;5.90;100.00;101924.63;103378;1336;71505;-81
2021/12/19 11:00:56;;;;;;;;;;;;;;;5.90;100.00;101926.90;103409;1339;72959;-80
2021/12/19 11:03:37;;;;;;;;;;;;;;;5.89;100.00;101930.16;103326;1338;61402;-79
2021/12/19 11:06:18;;;;;;;;;;;;;;;5.88;100.00;101908.61;103363;1344;60124;-82
2021/12/19 11:08:49;;;;;;;;;;;;;;;5.86;100.00;101902.23;103084;1340;74639;-81
2021/12/19 11:11:30;;;;;;;;;;;;;;;5.86;100.00;101896.84;103392;1338;71225;-80
2021/12/19 11:13:57;;;;;;;;;;;;;;;5.83;100.00;101908.63;103434;1339;71965;-78
2021/12/19 11:16:24;;;;;;;;;;;;;;;5.82;100.00;101902.39;103477;1337;61508;-79
2021/12/19 11:18:50;;;;;;;;;;;;;;;5.82;100.00;101890.28;103390;1336;60097;-79
2021/12/19 11:21:18;;;;;;;;;;;;;;;5.83;100.00;101886.15;103341;1342;75620;-82
2021/12/19 11:23:48;;;;;;;;;;;;;;;5.84;100.00;101881.36;103441;1336;71430;-80
2021/12/19 11:26:17;;;;;;;;;;;;;;;5.84;100.00;101876.96;103344;1336;72939;-80
2021/12/19 11:28:43;;;;;;;;;;;;;;;5.86;100.00;101875.73;103341;1339;62087;-77
2021/12/19 11:31:11;;;;;;;;;;;;;;;5.88;100.00;101878.60;103405;1343;58262;-78
2021/12/19 11:33:57;;;;;;;;;;;;;;;5.89;100.00;101883.58;103069;1338;469359;-79
2021/12/19 11:36:24;;;;;;;;;;;;;;;5.93;100.00;101874.56;103213;1339;72523;-80
2021/12/19 11:38:52;;;;;;;;;;;;;;;5.95;100.00;101867.92;103440;1339;72329;-78
2021/12/19 11:41:19;;;;;;;;;;;;;;;5.97;100.00;101865.69;103434;1336;62013;-79
2021/12/19 11:43:47;;;;;;;;;;;;;;;5.98;100.00;101857.70;102898;1346;58355;-80
2021/12/19 11:46:20;;;;;;;;;;;;;;;6.00;100.00;101854.34;103287;1339;74211;-79
2021/12/19 11:49:06;;;;;;;;;;;;;;;6.04;100.00;101860.52;103427;1336;72468;-81
2021/12/19 11:51:33;;;;;;;;;;;;;;;6.07;100.00;101863.11;103408;1330;72156;-81
2021/12/19 11:54:10;;;;;;;;;;;;;;;6.10;100.00;101858.13;103094;1340;58701;-82
2021/12/19 11:57:07;;;;;;;;;;;;;;;6.11;100.00;101843.52;103078;1339;63193;-81
2021/12/19 11:59:36;;;;;;;;;;;;;;;6.13;100.00;101837.73;103373;1343;74189;-79
2021/12/19 12:02:21;;;;;;;;;;;;;;;6.15;100.00;101839.16;103345;1336;71431;-81
2021/12/19 12:05:06;;;;;;;;;;;;;;;6.14;100.00;101836.44;103347;1336;73196;-81
2021/12/19 12:07:52;;;;;;;;;;;;;;;6.12;100.00;101823.21;103386;1336;62349;-80
2021/12/19 12:10:20;;;;;;;;;;;;;;;6.11;100.00;101804.45;103100;1337;60439;-81
2021/12/19 12:12:50;;;;;;;;;;;;;;;6.12;100.00;101806.91;103419;1340;75300;-79
2021/12/19 12:15:16;;;;;;;;;;;;;;;6.14;100.00;101810.45;103420;1337;70397;-82
2021/12/19 12:17:50;;;;;;;;;;;;;;;6.15;100.00;101795.45;103337;1339;74166;-78
2021/12/19 12:20:18;;;;;;;;;;;;;;;6.18;100.00;101785.76;103478;1336;62213;-80
2021/12/19 12:22:50;;;;;;;;;;;;;;;6.20;100.00;101790.17;103299;1336;61466;-80
2021/12/19 12:25:28;;;;;;;;;;;;;;;6.22;100.00;101780.99;103479;1339;74381;-82
2021/12/19 12:28:02;;;;;;;;;;;;;;;6.25;100.00;101777.80;103433;1342;71698;-82
2021/12/19 12:30:50;;;;;;;;;;;;;;;6.28;100.00;101768.30;103262;1342;72953;-79
2021/12/19 12:33:24;;;;;;;;;;;;;;;6.26;100.00;101772.79;103053;1323;62014;-82
2021/12/19 12:35:51;;;;;;;;;;;;;;;6.25;100.00;101761.65;102988;1337;60936;-83
2021/12/19 12:38:20;;;;;;;;;;;;;;;6.24;100.00;101773.48;103399;1340;74220;-84
2021/12/19 12:43:20;;;;;;;;;;;;;;;6.20;100.00;101769.92;103376;1336;73669;-83
2021/12/19 12:46:08;;;;;;;;;;;;;;;6.21;100.00;101769.16;103332;1333;62723;-81
2021/12/19 12:48:36;;;;;;;;;;;;;;;6.20;100.00;101761.70;103326;1342;59269;-80
2021/12/19 12:51:05;;;;;;;;;;;;;;;6.19;100.00;101752.27;103205;1338;74201;-81
2021/12/19 12:53:32;;;;;;;;;;;;;;;6.20;100.00;101745.86;103392;1336;72127;-82
2021/12/19 12:56:04;;;;;;;;;;;;;;;6.21;100.00;101749.86;103348;1336;71807;-84
2021/12/19 12:58:34;;;;;;;;;;;;;;;6.22;100.00;101741.84;103321;1344;63418;-79
2021/12/19 13:01:18;;;;;;;;;;;;;;;6.22;100.00;101756.42;103288;1342;61603;-80
2021/12/19 13:04:01;;;;;;;;;;;;;;;6.24;100.00;101742.79;103389;1337;74199;-82
2021/12/19 13:06:42;;;;;;;;;;;;;;;6.23;100.00;101747.23;103220;1337;71538;-82
2021/12/19 13:09:19;;;;;;;;;;;;;;;6.24;100.00;101734.84;103239;1341;74086;-80
2021/12/19 13:11:46;;;;;;;;;;;;;;;6.24;100.00;101727.64;103319;1336;63356;-78
2021/12/19 13:14:15;;;;;;;;;;;;;;;6.25;100.00;101731.05;103337;1338;61439;-79
2021/12/19 13:16:47;;;;;;;;;;;;;;;6.25;100.00;101750.19;103364;1336;75175;-80
2021/12/19 13:19:32;;;;;;;;;;;;;;;6.26;100.00;101739.96;103091;1343;71488;-79
2021/12/19 13:21:59;;;;;;;;;;;;;;;6.25;100.00;101733.16;103368;1343;72320;-79
2021/12/19 13:24:26;;;;;;;;;;;;;;;6.25;100.00;101726.00;103116;1342;61411;-80